createdAt,value
2022-08-17T00:01:33.343Z,19.17
2022-08-17T00:04:20.777Z,19.19
2022-08-17T00:06:49.225Z,19.14
2022-08-17T00:09:19.005Z,19.12
2022-08-17T00:12:34.623Z,19.10
2022-08-17T00:14:35.207Z,19.08
2022-08-17T00:17:03.833Z,19.10
2022-08-17T00:19:32.574Z,19.15
2022-08-17T00:22:33.173Z,19.18
2022-08-17T00:24:50.347Z,19.17
2022-08-17T00:27:17.421Z,19.16
2022-08-17T00:29:45.861Z,19.11
2022-08-17T00:33:14.623Z,19.09
2022-08-17T00:35:05.632Z,19.11
2022-08-17T00:37:32.332Z,19.08
2022-08-17T00:39:59.198Z,18.96
2022-08-17T00:42:30.815Z,18.93
2022-08-17T00:44:58.506Z,18.93
2022-08-17T00:47:25.408Z,18.92
2022-08-17T00:49:52.087Z,18.90
2022-08-17T00:52:21.930Z,18.88
2022-08-17T00:54:52.286Z,18.82
2022-08-17T00:57:23.974Z,18.82
2022-08-17T01:00:03.184Z,18.83
2022-08-17T01:02:40.354Z,18.89
2022-08-17T01:05:15.030Z,18.90
2022-08-17T01:07:43.073Z,18.81
2022-08-17T01:10:58.125Z,18.83
2022-08-17T01:13:02.568Z,18.83
2022-08-17T01:15:31.352Z,18.76
2022-08-17T01:17:58.108Z,18.72
2022-08-17T01:20:25.170Z,18.69
2022-08-17T01:22:52.415Z,18.66
2022-08-17T01:25:20.673Z,18.65
2022-08-17T01:27:48.380Z,18.68
2022-08-17T01:30:57.437Z,18.63
2022-08-17T01:33:04.384Z,18.65
2022-08-17T01:35:31.145Z,18.67
2022-08-17T01:37:57.779Z,18.60
2022-08-17T01:40:39.162Z,18.53
2022-08-17T01:43:10.555Z,18.52
2022-08-17T01:45:48.495Z,18.49
2022-08-17T01:48:32.246Z,18.49
2022-08-17T01:50:59.282Z,18.40
2022-08-17T01:53:35.535Z,18.37
2022-08-17T01:56:11.831Z,18.30
2022-08-17T01:58:39.503Z,18.26
2022-08-17T02:01:08.491Z,18.26
2022-08-17T02:03:36.919Z,18.25
2022-08-17T02:06:05.887Z,18.21
2022-08-17T02:09:02.672Z,18.17
2022-08-17T02:11:32.446Z,18.14
2022-08-17T02:14:03.373Z,18.07
2022-08-17T02:16:37.611Z,18.07
2022-08-17T02:19:11.399Z,18.06
2022-08-17T02:21:39.796Z,18.10
2022-08-17T02:24:13.397Z,18.09
2022-08-17T02:26:40.111Z,18.04
2022-08-17T02:29:07.302Z,17.98
2022-08-17T02:31:35.605Z,17.96
2022-08-17T02:34:04.574Z,17.90
2022-08-17T02:36:34.016Z,17.83
2022-08-17T02:39:02.363Z,17.84
2022-08-17T02:41:29.093Z,17.85
2022-08-17T02:43:55.756Z,17.88
2022-08-17T02:46:22.710Z,17.90
2022-08-17T02:48:49.745Z,17.90
2022-08-17T02:51:16.559Z,17.89
2022-08-17T02:53:43.276Z,17.87
2022-08-17T02:56:10.247Z,17.89
2022-08-17T02:58:37.008Z,17.90
2022-08-17T03:01:08.681Z,17.93
2022-08-17T03:03:39.670Z,17.84
2022-08-17T03:06:07.793Z,17.75
2022-08-17T03:08:35.388Z,17.70
2022-08-17T03:11:02.170Z,17.61
2022-08-17T03:13:30.782Z,17.58
2022-08-17T03:15:57.584Z,17.52
2022-08-17T03:18:26.305Z,17.54
2022-08-17T03:21:00.872Z,17.56
2022-08-17T03:23:29.658Z,17.54
2022-08-17T03:25:57.735Z,17.52
2022-08-17T03:28:25.729Z,17.47
2022-08-17T03:30:52.704Z,17.47
2022-08-17T03:33:19.953Z,17.48
2022-08-17T03:35:46.838Z,17.46
2022-08-17T03:38:15.075Z,17.33
2022-08-17T03:40:59.056Z,17.29
2022-08-17T03:43:30.320Z,17.27
2022-08-17T03:46:28.123Z,17.31
2022-08-17T03:49:19.870Z,17.35
2022-08-17T03:52:18.981Z,17.33
2022-08-17T03:55:04.370Z,17.38
2022-08-17T03:57:32.465Z,17.41
2022-08-17T03:59:59.845Z,17.42
2022-08-17T04:02:32.518Z,17.43
2022-08-17T04:04:59.781Z,17.43
2022-08-17T04:07:29.414Z,17.37
2022-08-17T04:09:58.084Z,17.35
2022-08-17T04:12:25.913Z,17.32
2022-08-17T04:14:54.931Z,17.31
2022-08-17T04:17:24.493Z,17.25
2022-08-17T04:19:51.780Z,17.19
2022-08-17T04:22:32.421Z,17.21
2022-08-17T04:25:15.690Z,17.29
2022-08-17T04:27:42.476Z,17.32
2022-08-17T04:30:10.189Z,17.38
2022-08-17T04:33:05.367Z,17.45
2022-08-17T04:35:36.782Z,17.49
2022-08-17T04:38:03.859Z,17.53
2022-08-17T04:40:48.980Z,17.58
2022-08-17T04:43:19.115Z,17.56
2022-08-17T04:46:07.642Z,17.61
2022-08-17T04:48:40.957Z,17.64
2022-08-17T04:51:11.761Z,17.64
2022-08-17T04:53:41.065Z,17.69
2022-08-17T04:56:11.761Z,17.72
2022-08-17T04:58:48.258Z,17.74
2022-08-17T05:01:23.150Z,17.79
2022-08-17T05:03:56.180Z,17.80
2022-08-17T05:06:23.631Z,17.77
2022-08-17T05:08:50.395Z,17.74
2022-08-17T05:11:17.065Z,17.74
2022-08-17T05:13:44.772Z,17.76
2022-08-17T05:16:12.029Z,17.84
2022-08-17T05:18:39.173Z,17.87
2022-08-17T05:21:06.907Z,17.91
2022-08-17T05:23:41.902Z,17.95
2022-08-17T05:26:24.815Z,17.96
2022-08-17T05:28:54.996Z,18.02
2022-08-17T05:31:24.551Z,18.07
2022-08-17T05:33:51.416Z,18.10
2022-08-17T05:36:42.397Z,18.13
2022-08-17T05:39:04.968Z,18.14
2022-08-17T05:41:31.648Z,18.18
2022-08-17T05:43:58.351Z,18.26
2022-08-17T05:46:28.675Z,18.32
2022-08-17T05:49:07.951Z,18.41
2022-08-17T05:52:18.807Z,18.49
2022-08-17T05:55:23.218Z,18.51
2022-08-17T05:58:16.975Z,18.53
2022-08-17T06:01:13.284Z,18.54
2022-08-17T06:03:58.776Z,18.59
2022-08-17T06:06:58.153Z,18.64
2022-08-17T06:09:40.151Z,18.69
2022-08-17T06:13:02.407Z,18.75
2022-08-17T06:16:33.341Z,18.87
2022-08-17T06:19:13.347Z,18.96
2022-08-17T06:21:44.986Z,19.07
2022-08-17T06:24:28.561Z,19.14
2022-08-17T06:27:21.747Z,19.23
2022-08-17T06:30:16.123Z,19.35
2022-08-17T06:32:44.674Z,19.37
2022-08-17T06:35:15.404Z,19.45
2022-08-17T06:38:38.188Z,19.46
2022-08-17T06:41:36.505Z,19.53
2022-08-17T06:44:43.356Z,19.64
2022-08-17T06:47:28.512Z,19.75
2022-08-17T06:50:22.129Z,19.88
2022-08-17T06:52:58.127Z,20.00
2022-08-17T06:55:44.175Z,20.09
2022-08-17T06:58:15.954Z,20.17
2022-08-17T07:00:47.117Z,20.19
2022-08-17T07:03:37.585Z,20.27
2022-08-17T07:06:14.442Z,20.39
2022-08-17T07:09:02.423Z,20.47
2022-08-17T07:11:51.626Z,20.51
2022-08-17T07:14:41.024Z,20.57
2022-08-17T07:17:13.994Z,20.62
2022-08-17T07:19:45.368Z,20.66
2022-08-17T07:22:57.552Z,20.70
2022-08-17T07:25:27.514Z,20.82
2022-08-17T07:27:59.799Z,20.83
2022-08-17T07:30:28.297Z,20.96
2022-08-17T07:33:03.326Z,21.13
2022-08-17T07:35:40.710Z,21.25
2022-08-17T07:38:24.749Z,21.33
2022-08-17T07:41:03.847Z,21.36
2022-08-17T07:44:00.034Z,21.46
2022-08-17T07:47:05.831Z,21.59
2022-08-17T07:49:42.050Z,21.63
2022-08-17T07:52:51.408Z,21.67
2022-08-17T07:55:34.992Z,21.74
2022-08-17T07:58:03.610Z,21.80
2022-08-17T08:00:32.277Z,21.85
2022-08-17T08:03:31.909Z,21.88
2022-08-17T08:06:02.019Z,22.01
2022-08-17T08:08:42.634Z,22.14
2022-08-17T08:11:12.766Z,22.27
2022-08-17T08:13:43.857Z,22.43
2022-08-17T08:16:29.564Z,22.61
2022-08-17T08:19:01.269Z,22.70
2022-08-17T08:22:06.786Z,22.79
2022-08-17T08:25:07.319Z,22.91
2022-08-17T08:27:36.670Z,23.00
2022-08-17T08:30:14.443Z,23.05
2022-08-17T08:33:18.284Z,23.12
2022-08-17T08:36:57.018Z,23.29
2022-08-17T08:39:30.973Z,23.34
2022-08-17T08:42:11.674Z,23.46
2022-08-17T08:44:59.981Z,23.56
2022-08-17T08:48:56.311Z,23.61
2022-08-17T08:51:21.898Z,23.69
2022-08-17T08:54:41.296Z,23.92
2022-08-17T08:57:34.079Z,24.06
2022-08-17T09:00:25.598Z,24.15
2022-08-17T09:03:51.857Z,24.21
2022-08-17T09:07:03.918Z,24.40
2022-08-17T09:09:50.469Z,24.52
2022-08-17T09:12:30.907Z,24.62
2022-08-17T09:15:09.447Z,24.69
2022-08-17T09:19:02.841Z,24.74
2022-08-17T09:21:48.688Z,24.80
2022-08-17T09:24:40.146Z,24.87
2022-08-17T09:27:14.291Z,24.98
2022-08-17T09:29:49.443Z,25.13
2022-08-17T09:32:22.199Z,25.21
2022-08-17T09:35:02.008Z,25.25
2022-08-17T09:37:56.222Z,25.36
2022-08-17T09:40:52.851Z,25.47
2022-08-17T09:43:28.685Z,25.50
2022-08-17T09:46:01.880Z,25.54
2022-08-17T09:48:56.591Z,25.68
2022-08-17T09:51:35.396Z,25.66
2022-08-17T09:54:34.851Z,25.69
2022-08-17T09:57:32.471Z,25.70
2022-08-17T10:00:30.578Z,25.70
2022-08-17T10:03:26.058Z,25.77
2022-08-17T10:06:22.266Z,25.77
2022-08-17T10:09:08.251Z,25.84
2022-08-17T10:12:30.241Z,25.92
2022-08-17T10:15:13.551Z,26.00
2022-08-17T10:17:59.730Z,26.09
2022-08-17T10:20:30.925Z,26.29
2022-08-17T10:23:24.751Z,26.46
2022-08-17T10:26:15.407Z,26.66
2022-08-17T10:28:59.201Z,26.68
2022-08-17T10:31:41.056Z,26.66
2022-08-17T10:34:50.901Z,26.57
2022-08-17T10:37:39.288Z,26.71
2022-08-17T10:40:57.450Z,26.81
2022-08-17T10:44:37.117Z,26.79
2022-08-17T10:47:09.117Z,26.85
2022-08-17T10:49:38.840Z,26.91
2022-08-17T10:52:50.137Z,27.07
2022-08-17T10:55:19.085Z,27.16
2022-08-17T10:57:49.520Z,27.08
2022-08-17T11:01:09.528Z,27.19
2022-08-17T11:03:36.285Z,27.23
2022-08-17T11:06:18.039Z,27.25
2022-08-17T11:09:44.222Z,27.23
2022-08-17T11:12:44.905Z,27.20
2022-08-17T11:15:50.537Z,27.25
2022-08-17T11:19:14.019Z,27.44
2022-08-17T11:22:09.255Z,27.62
2022-08-17T11:24:39.935Z,27.60
2022-08-17T11:27:29.130Z,27.64
2022-08-17T11:30:20.981Z,27.70
2022-08-17T11:32:54.738Z,27.86
2022-08-17T11:35:21.915Z,27.90
2022-08-17T11:38:10.823Z,27.90
2022-08-17T11:41:29.134Z,27.98
2022-08-17T11:44:37.774Z,28.10
2022-08-17T11:48:27.037Z,28.09
2022-08-17T11:51:46.358Z,28.45
2022-08-17T11:54:51.563Z,28.73
2022-08-17T12:00:51.896Z,28.61
2022-08-17T12:03:54.056Z,28.57
2022-08-17T12:06:41.570Z,28.62
2022-08-17T12:09:25.059Z,28.65
2022-08-17T12:12:13.263Z,28.59
2022-08-17T12:17:50.413Z,28.66
2022-08-17T12:20:40.665Z,28.73
2022-08-17T12:23:22.522Z,28.83
2022-08-17T12:26:17.299Z,29.12
2022-08-17T12:28:47.060Z,29.03
2022-08-17T12:31:23.378Z,28.94
2022-08-17T12:33:51.867Z,28.87
2022-08-17T12:36:25.228Z,28.78
2022-08-17T12:39:13.705Z,28.86
2022-08-17T12:41:45.043Z,28.87
2022-08-17T12:44:21.586Z,28.95
2022-08-17T12:47:21.859Z,29.11
2022-08-17T12:49:54.579Z,29.16
2022-08-17T12:52:27.181Z,29.14
2022-08-17T12:55:22.487Z,29.06
2022-08-17T12:57:56.756Z,29.04
2022-08-17T13:00:30.416Z,29.21
2022-08-17T13:03:19.314Z,29.25
2022-08-17T13:06:03.938Z,29.25
2022-08-17T13:08:37.881Z,29.33
2022-08-17T13:11:11.061Z,29.47
2022-08-17T13:13:41.161Z,29.64
2022-08-17T13:16:17.117Z,29.68
2022-08-17T13:19:04.847Z,29.69
2022-08-17T13:21:33.672Z,29.62
2022-08-17T13:24:07.912Z,29.58
2022-08-17T13:26:38.678Z,29.60
2022-08-17T13:29:08.431Z,29.54
2022-08-17T13:31:52.771Z,29.63
2022-08-17T13:35:12.341Z,29.95
2022-08-17T13:37:42.706Z,30.20
2022-08-17T13:40:32.231Z,30.32
2022-08-17T13:42:59.053Z,30.31
2022-08-17T13:45:34.716Z,30.34
2022-08-17T13:48:13.673Z,30.17
2022-08-17T13:51:22.420Z,30.09
2022-08-17T13:53:54.262Z,29.93
2022-08-17T13:56:45.216Z,29.76
2022-08-17T13:59:48.171Z,29.63
2022-08-17T14:02:13.413Z,29.59
2022-08-17T14:04:42.036Z,29.65
2022-08-17T14:07:31.732Z,29.62
2022-08-17T14:10:02.754Z,29.76
2022-08-17T14:12:32.108Z,29.80
2022-08-17T14:14:59.465Z,29.88
2022-08-17T14:17:29.004Z,29.96
2022-08-17T14:19:55.745Z,29.98
2022-08-17T14:22:31.651Z,30.01
2022-08-17T14:25:01.772Z,29.98
2022-08-17T14:27:31.848Z,29.89
2022-08-17T14:29:58.543Z,29.83
2022-08-17T14:32:32.665Z,29.73
2022-08-17T14:35:01.147Z,29.66
2022-08-17T14:37:30.276Z,29.59
2022-08-17T14:40:00.383Z,29.61
2022-08-17T14:42:31.228Z,29.60
2022-08-17T14:45:05.977Z,29.65
2022-08-17T14:47:34.126Z,29.65
2022-08-17T14:50:02.659Z,29.59
2022-08-17T14:52:29.563Z,29.73
2022-08-17T14:54:57.508Z,29.79
2022-08-17T14:57:34.148Z,29.94
2022-08-17T15:00:01.784Z,29.96
2022-08-17T15:02:29.331Z,29.93
2022-08-17T15:05:05.417Z,29.80
2022-08-17T15:07:32.183Z,29.71
2022-08-17T15:10:01.547Z,29.70
2022-08-17T15:12:33.238Z,29.74
2022-08-17T15:15:04.470Z,29.75
2022-08-17T15:17:43.915Z,29.77
2022-08-17T15:20:27.925Z,29.73
2022-08-17T15:22:56.016Z,29.65
2022-08-17T15:25:24.469Z,29.49
2022-08-17T15:27:51.575Z,29.44
2022-08-17T15:30:19.503Z,29.27
2022-08-17T15:32:51.004Z,29.32
2022-08-17T15:35:27.920Z,29.32
2022-08-17T15:38:04.669Z,29.38
2022-08-17T15:40:34.965Z,29.38
2022-08-17T15:43:08.430Z,29.27
2022-08-17T15:45:35.394Z,29.19
2022-08-17T15:48:02.451Z,29.15
2022-08-17T15:50:29.171Z,29.17
2022-08-17T15:52:58.704Z,29.17
2022-08-17T15:55:27.803Z,29.20
2022-08-17T15:57:54.845Z,29.22
2022-08-17T16:00:24.078Z,29.17
2022-08-17T16:03:46.742Z,29.16
2022-08-17T16:05:37.675Z,29.12
2022-08-17T16:08:07.512Z,29.01
2022-08-17T16:10:34.979Z,28.92
2022-08-17T16:13:03.857Z,28.83
2022-08-17T16:15:33.544Z,28.81
2022-08-17T16:18:00.276Z,28.81
2022-08-17T16:20:27.681Z,28.83
2022-08-17T16:22:55.171Z,28.84
2022-08-17T16:25:50.422Z,28.77
2022-08-17T16:28:13.901Z,28.67
2022-08-17T16:30:41.302Z,28.54
2022-08-17T16:33:11.338Z,28.49
2022-08-17T16:35:38.482Z,28.45
2022-08-17T16:38:05.292Z,28.36
2022-08-17T16:40:35.840Z,28.27
2022-08-17T16:43:04.251Z,28.21
2022-08-17T16:45:40.108Z,28.21
2022-08-17T16:48:08.440Z,28.24
2022-08-17T16:50:35.592Z,28.32
2022-08-17T16:53:09.078Z,28.30
2022-08-17T16:55:37.008Z,28.24
2022-08-17T16:58:08.759Z,28.20
2022-08-17T17:00:36.454Z,28.17
2022-08-17T17:03:20.684Z,28.17
2022-08-17T17:06:22.798Z,28.08
2022-08-17T17:09:06.984Z,28.00
2022-08-17T17:11:57.091Z,27.98
2022-08-17T17:14:28.358Z,27.98
2022-08-17T17:17:20.954Z,27.91
2022-08-17T17:20:11.839Z,27.90
2022-08-17T17:23:07.999Z,27.86
2022-08-17T17:25:41.543Z,27.82
2022-08-17T17:28:34.244Z,27.78
2022-08-17T17:31:15.827Z,27.71
2022-08-17T17:33:53.292Z,27.65
2022-08-17T17:36:29.914Z,27.56
2022-08-17T17:39:05.273Z,27.48
2022-08-17T17:41:48.916Z,27.38
2022-08-17T17:44:20.024Z,27.32
2022-08-17T17:46:55.339Z,27.25
2022-08-17T17:49:22.242Z,27.17
2022-08-17T17:52:47.620Z,27.07
2022-08-17T17:56:18.754Z,26.98
2022-08-17T17:59:44.199Z,26.94
2022-08-17T18:02:52.984Z,26.85
2022-08-17T18:06:09.750Z,26.68
2022-08-17T18:09:36.275Z,26.47
2022-08-17T18:12:14.703Z,26.41
2022-08-17T18:15:21.484Z,26.29
2022-08-17T18:18:23.228Z,26.15
2022-08-17T18:20:56.218Z,26.02
2022-08-17T18:23:27.933Z,25.96
2022-08-17T18:25:55.567Z,25.91
2022-08-17T18:28:39.756Z,25.88
2022-08-17T18:31:20.246Z,25.81
2022-08-17T18:37:16.037Z,25.60
2022-08-17T18:39:46.110Z,25.53
2022-08-17T18:42:25.955Z,25.45
2022-08-17T18:44:55.266Z,25.38
2022-08-17T18:47:25.463Z,25.31
2022-08-17T18:50:16.537Z,25.24
2022-08-17T18:52:43.223Z,25.16
2022-08-17T18:55:36.340Z,25.09
2022-08-17T18:58:20.531Z,25.00
2022-08-17T19:00:49.235Z,24.93
2022-08-17T19:03:15.923Z,24.82
2022-08-17T19:05:55.726Z,24.74
2022-08-17T19:08:35.501Z,24.69
2022-08-17T19:11:09.864Z,24.65
2022-08-17T19:14:03.209Z,24.62
2022-08-17T19:16:38.568Z,24.56
2022-08-17T19:19:13.383Z,24.49
2022-08-17T19:21:49.250Z,24.42
2022-08-17T19:24:22.029Z,24.39
2022-08-17T19:26:56.809Z,24.36
2022-08-17T19:30:02.780Z,24.32
2022-08-17T19:32:35.418Z,24.29
2022-08-17T19:35:03.741Z,24.26
2022-08-17T19:38:12.989Z,24.14
2022-08-17T19:41:11.376Z,24.04
2022-08-17T19:43:58.224Z,23.97
2022-08-17T19:47:00.826Z,23.90
2022-08-17T19:49:41.124Z,23.88
2022-08-17T19:52:55.207Z,23.84
2022-08-17T19:55:36.252Z,23.82
2022-08-17T19:58:48.204Z,23.73
2022-08-17T20:01:25.113Z,23.69
2022-08-17T20:04:06.775Z,23.62
2022-08-17T20:06:37.356Z,23.58
2022-08-17T20:09:14.938Z,23.51
2022-08-17T20:11:48.622Z,23.44
2022-08-17T20:14:20.381Z,23.40
2022-08-17T20:16:47.639Z,23.33
2022-08-17T20:19:36.908Z,23.26
2022-08-17T20:22:14.439Z,23.21
2022-08-17T20:25:06.991Z,23.13
2022-08-17T20:27:36.349Z,23.06
2022-08-17T20:30:12.107Z,23.03
2022-08-17T20:32:58.067Z,22.99
2022-08-17T20:35:26.421Z,22.98
2022-08-17T20:37:57.693Z,22.98
2022-08-17T20:40:31.313Z,22.96
2022-08-17T20:42:59.106Z,22.95
2022-08-17T20:45:54.123Z,22.92
2022-08-17T20:48:42.929Z,22.91
2022-08-17T20:51:13.954Z,22.91
2022-08-17T20:54:07.012Z,22.93
2022-08-17T20:56:48.506Z,22.90
2022-08-17T21:00:12.931Z,22.85
2022-08-17T21:02:41.787Z,22.83
2022-08-17T21:05:34.607Z,22.75
2022-08-17T21:08:45.913Z,22.71
2022-08-17T21:12:03.243Z,22.67
2022-08-17T21:17:38.264Z,22.62
2022-08-17T21:37:48.565Z,22.28
2022-08-17T21:40:18.378Z,22.19
2022-08-17T21:42:50.675Z,22.19
2022-08-17T21:45:35.129Z,22.12
2022-08-17T21:48:24.631Z,22.11
2022-08-17T21:51:10.426Z,22.04
2022-08-17T21:54:05.282Z,21.99
2022-08-17T21:56:38.714Z,21.96
2022-08-17T21:59:16.070Z,21.87
2022-08-17T22:01:43.262Z,21.84
2022-08-17T22:04:26.122Z,21.83
2022-08-17T22:06:57.297Z,21.79
2022-08-17T22:09:53.673Z,21.76
2022-08-17T22:12:27.158Z,21.76
2022-08-17T22:15:00.624Z,21.79
2022-08-17T22:17:40.257Z,21.82
2022-08-17T22:20:14.485Z,21.83
2022-08-17T22:23:32.284Z,21.83
2022-08-17T22:26:05.159Z,21.86
2022-08-17T22:28:52.301Z,21.83
2022-08-17T22:31:28.386Z,21.79
2022-08-17T22:34:13.864Z,21.77
2022-08-17T22:36:42.280Z,21.67
2022-08-17T22:39:29.106Z,21.46
2022-08-17T22:42:00.926Z,21.38
2022-08-17T22:44:36.474Z,21.35
2022-08-17T22:47:39.501Z,21.34
2022-08-17T22:50:14.727Z,21.31
2022-08-17T22:53:03.662Z,21.30
2022-08-17T22:55:51.578Z,21.29
2022-08-17T22:58:40.647Z,21.31
2022-08-17T23:01:29.664Z,21.27
2022-08-17T23:04:02.076Z,21.15
2022-08-17T23:06:29.999Z,21.15
2022-08-17T23:08:57.992Z,21.20
2022-08-17T23:11:36.970Z,21.27
2022-08-17T23:14:15.668Z,21.21
2022-08-17T23:16:45.141Z,21.13
2022-08-17T23:19:15.265Z,20.99
2022-08-17T23:21:44.745Z,20.81
2022-08-17T23:24:17.391Z,20.72
2022-08-17T23:26:43.901Z,20.75
2022-08-17T23:29:10.585Z,20.83
2022-08-17T23:31:38.760Z,20.91
2022-08-17T23:34:15.202Z,21.01
2022-08-17T23:36:45.414Z,21.04
2022-08-17T23:39:12.423Z,21.10
2022-08-17T23:41:40.109Z,21.15
2022-08-17T23:44:07.423Z,21.16
2022-08-17T23:46:34.676Z,21.16
2022-08-17T23:49:01.793Z,21.21
2022-08-17T23:51:34.605Z,21.16
2022-08-17T23:54:08.211Z,21.14
2022-08-17T23:56:44.127Z,21.09
2022-08-17T23:59:11.351Z,21.00
